createdAt,value
2022-10-09T00:01:24.394Z,9.57
2022-10-09T00:03:53.473Z,10.73
2022-10-09T00:06:23.185Z,10.30
2022-10-09T00:08:50.434Z,9.68
2022-10-09T00:11:20.533Z,9.85
2022-10-09T00:13:47.918Z,9.50
2022-10-09T00:16:16.210Z,9.98
2022-10-09T00:18:43.222Z,10.40
2022-10-09T00:21:23.455Z,8.45
2022-10-09T00:23:50.835Z,9.65
2022-10-09T00:26:17.579Z,8.93
2022-10-09T00:28:44.098Z,9.68
2022-10-09T00:31:11.855Z,8.33
2022-10-09T00:33:38.955Z,8.30
2022-10-09T00:36:07.592Z,8.73
2022-10-09T00:38:34.110Z,6.75
2022-10-09T00:41:00.886Z,8.18
2022-10-09T00:43:46.074Z,8.10
2022-10-09T00:46:33.509Z,8.73
2022-10-09T00:49:06.292Z,8.45
2022-10-09T00:51:34.619Z,8.27
2022-10-09T00:54:04.869Z,8.10
2022-10-09T00:56:31.331Z,9.13
2022-10-09T00:58:58.497Z,9.27
2022-10-09T01:01:25.043Z,9.23
2022-10-09T01:03:51.632Z,8.48
2022-10-09T01:06:44.735Z,9.27
2022-10-09T01:09:19.762Z,7.73
2022-10-09T01:11:56.426Z,7.65
2022-10-09T01:14:29.648Z,7.35
2022-10-09T01:17:11.230Z,7.40
2022-10-09T01:20:09.907Z,7.90
2022-10-09T01:22:52.000Z,7.63
2022-10-09T01:25:26.943Z,6.60
2022-10-09T01:27:54.578Z,7.97
2022-10-09T01:30:21.039Z,8.70
2022-10-09T01:32:50.625Z,8.68
2022-10-09T01:35:17.921Z,8.03
2022-10-09T01:37:47.090Z,9.13
2022-10-09T01:40:17.014Z,10.35
2022-10-09T01:42:44.185Z,9.38
2022-10-09T01:45:11.053Z,9.40
2022-10-09T01:47:37.962Z,8.17
2022-10-09T01:50:16.463Z,8.23
2022-10-09T01:53:03.104Z,6.80
2022-10-09T01:55:49.445Z,7.03
2022-10-09T01:58:23.540Z,7.53
2022-10-09T02:01:00.557Z,7.83
2022-10-09T02:03:28.917Z,7.15
2022-10-09T02:05:57.625Z,8.07
2022-10-09T02:08:25.228Z,7.57
2022-10-09T02:10:56.486Z,6.32
2022-10-09T02:13:23.600Z,7.27
2022-10-09T02:15:57.974Z,7.43
2022-10-09T02:19:03.355Z,8.57
2022-10-09T02:21:42.161Z,8.32
2022-10-09T02:24:16.555Z,8.18
2022-10-09T02:26:43.010Z,7.20
2022-10-09T02:29:09.839Z,7.80
2022-10-09T02:31:39.042Z,7.65
2022-10-09T02:34:09.279Z,8.38
2022-10-09T02:36:36.502Z,7.85
2022-10-09T02:39:04.459Z,8.30
2022-10-09T02:41:30.910Z,7.53
2022-10-09T02:43:57.440Z,7.05
2022-10-09T02:46:24.296Z,7.45
2022-10-09T02:48:51.051Z,8.10
2022-10-09T02:51:17.594Z,7.53
2022-10-09T02:53:44.265Z,7.97
2022-10-09T02:56:10.815Z,8.60
2022-10-09T02:58:37.641Z,7.93
2022-10-09T03:01:05.225Z,8.02
2022-10-09T03:03:32.334Z,8.43
2022-10-09T03:06:09.351Z,8.10
2022-10-09T03:08:37.145Z,8.23
2022-10-09T03:11:04.464Z,8.88
2022-10-09T03:13:31.180Z,8.90
2022-10-09T03:16:09.057Z,8.80
2022-10-09T03:18:36.536Z,8.60
2022-10-09T03:21:14.434Z,9.40
2022-10-09T03:23:42.770Z,8.32
2022-10-09T03:26:12.134Z,8.43
2022-10-09T03:28:41.191Z,8.63
2022-10-09T03:31:08.802Z,7.93
2022-10-09T03:33:36.185Z,8.10
2022-10-09T03:36:02.796Z,7.18
2022-10-09T03:38:29.255Z,8.70
2022-10-09T03:40:59.208Z,8.40
2022-10-09T03:43:25.991Z,7.57
2022-10-09T03:45:52.853Z,9.40
2022-10-09T03:48:19.277Z,8.23
2022-10-09T03:50:45.859Z,8.73
2022-10-09T03:53:13.230Z,9.43
2022-10-09T03:55:40.384Z,9.40
2022-10-09T03:58:07.461Z,9.45
2022-10-09T04:00:34.702Z,9.23
2022-10-09T04:03:01.359Z,9.02
2022-10-09T04:05:27.919Z,9.37
2022-10-09T04:07:54.333Z,8.35
2022-10-09T04:10:20.750Z,8.55
2022-10-09T04:12:47.495Z,8.13
2022-10-09T04:15:14.227Z,7.40
2022-10-09T04:17:40.667Z,7.43
2022-10-09T04:20:07.692Z,8.63
2022-10-09T04:22:34.232Z,7.72
2022-10-09T04:25:00.669Z,9.02
2022-10-09T04:27:27.146Z,8.48
2022-10-09T04:29:53.593Z,9.07
2022-10-09T04:32:19.990Z,8.55
2022-10-09T04:34:46.409Z,8.95
2022-10-09T04:37:12.819Z,8.38
2022-10-09T04:39:39.290Z,8.85
2022-10-09T04:42:06.261Z,8.07
2022-10-09T04:44:32.738Z,8.68
2022-10-09T04:46:59.149Z,8.82
2022-10-09T04:49:25.611Z,8.63
2022-10-09T04:51:52.051Z,8.85
2022-10-09T04:54:18.505Z,7.17
2022-10-09T04:56:44.935Z,8.30
2022-10-09T04:59:11.441Z,8.30
2022-10-09T05:01:38.653Z,8.70
2022-10-09T05:04:05.409Z,8.95
2022-10-09T05:06:31.903Z,8.83
2022-10-09T05:08:58.324Z,9.07
2022-10-09T05:11:25.699Z,8.43
2022-10-09T05:13:54.895Z,7.78
2022-10-09T05:16:24.552Z,9.27
2022-10-09T05:18:54.013Z,9.67
2022-10-09T05:21:21.727Z,8.70
2022-10-09T05:23:48.936Z,9.45
2022-10-09T05:26:18.304Z,9.23
2022-10-09T05:28:45.687Z,8.45
2022-10-09T05:31:21.354Z,9.03
2022-10-09T05:33:48.571Z,9.07
2022-10-09T05:36:16.050Z,9.20
2022-10-09T05:38:42.504Z,9.30
2022-10-09T05:41:12.499Z,9.82
2022-10-09T05:43:41.941Z,9.73
2022-10-09T05:46:21.666Z,9.55
2022-10-09T05:48:53.246Z,9.13
2022-10-09T05:51:22.659Z,9.48
2022-10-09T05:53:49.529Z,10.35
2022-10-09T05:56:28.113Z,9.10
2022-10-09T05:59:03.519Z,10.30
2022-10-09T06:01:35.940Z,9.18
2022-10-09T06:04:03.530Z,10.07
2022-10-09T06:06:32.352Z,10.18
2022-10-09T06:08:59.427Z,9.80
2022-10-09T06:11:29.169Z,10.35
2022-10-09T06:13:56.301Z,9.32
2022-10-09T06:16:25.647Z,10.25
2022-10-09T06:18:53.788Z,10.32
2022-10-09T06:21:21.143Z,9.87
2022-10-09T06:23:59.074Z,9.60
2022-10-09T06:26:32.203Z,9.77
2022-10-09T06:29:00.974Z,9.07
2022-10-09T06:31:30.624Z,9.98
2022-10-09T06:33:59.535Z,9.03
2022-10-09T06:36:28.229Z,8.75
2022-10-09T06:38:55.128Z,9.90
2022-10-09T06:41:24.154Z,9.20
2022-10-09T06:43:55.813Z,9.73
2022-10-09T06:46:24.957Z,9.93
2022-10-09T06:48:51.964Z,10.32
2022-10-09T06:51:20.883Z,11.55
2022-10-09T06:53:52.829Z,10.38
2022-10-09T06:56:21.735Z,11.90
2022-10-09T06:58:48.861Z,10.57
2022-10-09T07:01:23.867Z,9.82
2022-10-09T07:03:56.211Z,11.05
2022-10-09T07:06:28.363Z,10.63
2022-10-09T07:08:58.609Z,10.18
2022-10-09T07:11:33.377Z,10.70
2022-10-09T07:14:01.735Z,9.73
2022-10-09T07:16:31.410Z,9.85
2022-10-09T07:19:01.084Z,8.73
2022-10-09T07:21:27.518Z,9.73
2022-10-09T07:23:54.175Z,10.47
2022-10-09T07:26:26.362Z,9.88
2022-10-09T07:28:53.940Z,9.55
2022-10-09T07:31:20.667Z,9.07
2022-10-09T07:33:48.231Z,8.50
2022-10-09T07:36:14.681Z,8.97
2022-10-09T07:38:41.173Z,7.88
2022-10-09T07:41:12.526Z,8.73
2022-10-09T07:43:40.410Z,8.88
2022-10-09T07:46:10.784Z,9.15
2022-10-09T07:48:37.784Z,8.37
2022-10-09T07:51:13.363Z,8.00
2022-10-09T07:53:39.854Z,8.55
2022-10-09T07:56:07.093Z,8.63
2022-10-09T07:58:33.773Z,7.88
2022-10-09T08:01:05.179Z,7.30
2022-10-09T08:03:31.797Z,8.90
2022-10-09T08:05:58.560Z,7.97
2022-10-09T08:08:25.122Z,8.13
2022-10-09T08:10:51.638Z,8.00
2022-10-09T08:13:18.039Z,7.13
2022-10-09T08:15:45.351Z,7.45
2022-10-09T08:18:12.668Z,6.85
2022-10-09T08:20:39.726Z,7.47
2022-10-09T08:23:06.271Z,8.07
2022-10-09T08:25:37.490Z,7.30
2022-10-09T08:28:04.844Z,7.75
2022-10-09T08:30:31.494Z,7.38
2022-10-09T08:32:57.934Z,7.43
2022-10-09T08:35:24.350Z,7.53
2022-10-09T08:37:50.792Z,7.60
2022-10-09T08:40:29.250Z,8.00
2022-10-09T08:43:03.203Z,7.93
2022-10-09T08:45:32.627Z,7.95
2022-10-09T08:48:04.309Z,8.30
2022-10-09T08:50:34.843Z,7.50
2022-10-09T08:53:28.556Z,6.97
2022-10-09T08:56:15.081Z,7.13
2022-10-09T08:58:43.922Z,7.00
2022-10-09T09:01:47.612Z,7.50
2022-10-09T09:04:29.206Z,7.20
2022-10-09T09:07:19.626Z,8.13
2022-10-09T09:09:54.139Z,6.97
2022-10-09T09:12:49.442Z,6.95
2022-10-09T09:15:31.368Z,6.80
2022-10-09T09:18:00.740Z,7.00
2022-10-09T09:21:15.267Z,7.55
2022-10-09T09:23:46.870Z,8.27
2022-10-09T09:26:17.418Z,8.15
2022-10-09T09:28:45.123Z,8.07
2022-10-09T09:31:17.524Z,7.20
2022-10-09T09:33:52.960Z,7.18
2022-10-09T09:36:33.282Z,7.57
2022-10-09T09:39:54.283Z,6.97
2022-10-09T09:41:46.284Z,8.68
2022-10-09T09:44:14.949Z,6.93
2022-10-09T09:46:43.579Z,6.82
2022-10-09T09:49:23.730Z,7.80
2022-10-09T09:51:51.397Z,7.20
2022-10-09T09:54:24.219Z,7.70
2022-10-09T09:57:12.016Z,7.67
2022-10-09T09:59:41.907Z,6.70
2022-10-09T10:02:20.686Z,6.55
2022-10-09T10:04:58.962Z,5.90
2022-10-09T10:07:33.635Z,7.25
2022-10-09T10:10:15.216Z,6.67
2022-10-09T10:12:59.192Z,6.75
2022-10-09T10:15:29.000Z,6.95
2022-10-09T10:18:03.046Z,6.43
2022-10-09T10:20:32.267Z,6.88
2022-10-09T10:23:00.177Z,6.43
2022-10-09T10:25:32.068Z,6.88
2022-10-09T10:28:06.006Z,7.28
2022-10-09T10:30:35.404Z,6.28
2022-10-09T10:33:19.287Z,6.82
2022-10-09T10:35:51.556Z,6.00
2022-10-09T10:38:35.894Z,6.53
2022-10-09T10:41:30.315Z,6.30
2022-10-09T10:44:42.675Z,5.47
2022-10-09T10:47:18.458Z,6.63
2022-10-09T10:49:44.937Z,6.77
2022-10-09T10:52:33.249Z,6.78
2022-10-09T10:55:02.626Z,6.63
2022-10-09T10:57:43.176Z,6.95
2022-10-09T11:00:11.375Z,6.93
2022-10-09T11:03:11.632Z,7.17
2022-10-09T11:05:47.423Z,7.32
2022-10-09T11:08:51.403Z,7.00
2022-10-09T11:11:37.320Z,6.18
2022-10-09T11:14:20.057Z,6.60
2022-10-09T11:17:06.645Z,6.33
2022-10-09T11:19:51.003Z,6.22
2022-10-09T11:22:40.179Z,6.25
2022-10-09T11:25:22.010Z,6.40
2022-10-09T11:28:11.856Z,6.03
2022-10-09T11:30:51.087Z,6.03
2022-10-09T11:33:42.817Z,6.13
2022-10-09T11:36:34.284Z,6.95
2022-10-09T11:39:09.667Z,7.28
2022-10-09T11:41:37.511Z,6.75
2022-10-09T11:44:19.213Z,6.37
2022-10-09T11:46:52.177Z,5.47
2022-10-09T11:49:24.393Z,6.40
2022-10-09T11:51:57.413Z,5.85
2022-10-09T11:54:27.459Z,5.90
2022-10-09T11:57:01.130Z,6.10
2022-10-09T11:59:35.104Z,6.47
2022-10-09T12:02:26.858Z,6.20
2022-10-09T12:04:55.480Z,6.22
2022-10-09T12:10:23.330Z,6.60
2022-10-09T12:13:03.020Z,6.43
2022-10-09T12:15:48.062Z,6.60
2022-10-09T12:18:23.665Z,5.78
2022-10-09T12:20:51.151Z,6.53
2022-10-09T12:23:27.942Z,6.20
2022-10-09T12:25:56.634Z,6.30
2022-10-09T12:28:29.453Z,6.72
2022-10-09T12:30:59.622Z,6.20
2022-10-09T12:33:40.096Z,6.72
2022-10-09T12:36:15.353Z,6.87
2022-10-09T12:38:42.822Z,7.13
2022-10-09T12:41:41.370Z,7.30
2022-10-09T12:44:23.907Z,6.53
2022-10-09T12:46:51.303Z,6.45
2022-10-09T12:49:21.676Z,6.60
2022-10-09T12:51:56.753Z,6.72
2022-10-09T12:54:25.171Z,6.63
2022-10-09T12:56:53.358Z,6.72
2022-10-09T12:59:20.913Z,7.47
2022-10-09T13:01:50.023Z,6.23
2022-10-09T13:04:56.599Z,6.22
2022-10-09T13:07:26.365Z,6.10
2022-10-09T13:10:00.176Z,6.47
2022-10-09T13:12:29.183Z,6.18
2022-10-09T13:15:05.103Z,6.50
2022-10-09T13:17:40.275Z,5.90
2022-10-09T13:20:12.453Z,5.82
2022-10-09T13:22:39.651Z,5.70
2022-10-09T13:25:06.807Z,6.05
2022-10-09T13:27:38.005Z,5.83
2022-10-09T13:30:06.198Z,4.93
2022-10-09T13:32:32.631Z,4.97
2022-10-09T13:34:59.149Z,5.00
2022-10-09T13:37:26.659Z,4.68
2022-10-09T13:39:58.614Z,4.87
2022-10-09T13:42:33.398Z,4.15
2022-10-09T13:44:59.860Z,3.95
2022-10-09T13:47:26.399Z,3.58
2022-10-09T13:49:52.849Z,3.75
2022-10-09T13:52:19.294Z,3.60
2022-10-09T13:54:45.742Z,3.53
2022-10-09T13:57:12.250Z,3.42
2022-10-09T13:59:39.410Z,2.78
2022-10-09T14:02:05.873Z,2.30
2022-10-09T14:04:32.290Z,1.63
2022-10-09T14:06:58.711Z,2.00
2022-10-09T14:09:25.218Z,2.25
2022-10-09T14:11:51.660Z,2.42
2022-10-09T14:14:18.094Z,1.80
2022-10-09T14:16:44.628Z,2.37
2022-10-09T14:19:11.744Z,2.30
2022-10-09T14:21:38.207Z,2.00
2022-10-09T14:24:05.391Z,2.90
2022-10-09T14:26:32.486Z,2.78
2022-10-09T14:29:01.107Z,2.10
2022-10-09T14:31:28.262Z,2.75
2022-10-09T14:33:57.321Z,2.40
2022-10-09T14:36:23.842Z,2.53
2022-10-09T14:38:50.850Z,2.35
2022-10-09T14:41:17.989Z,3.00
2022-10-09T14:43:45.480Z,2.80
2022-10-09T14:46:16.798Z,2.80
2022-10-09T14:48:50.236Z,2.40
2022-10-09T14:51:21.607Z,3.65
2022-10-09T14:53:48.604Z,2.83
2022-10-09T14:56:18.272Z,3.78
2022-10-09T14:58:45.026Z,2.92
2022-10-09T15:01:17.417Z,2.20
2022-10-09T15:03:44.721Z,2.38
2022-10-09T15:06:12.650Z,3.03
2022-10-09T15:08:42.313Z,3.33
2022-10-09T15:11:10.374Z,2.63
2022-10-09T15:13:37.450Z,2.30
2022-10-09T15:16:06.997Z,2.50
2022-10-09T15:18:34.790Z,2.30
2022-10-09T15:21:01.699Z,2.83
2022-10-09T15:23:29.469Z,2.22
2022-10-09T15:25:58.381Z,2.50
2022-10-09T15:28:25.463Z,3.05
2022-10-09T15:30:59.132Z,2.57
2022-10-09T15:33:25.969Z,2.60
2022-10-09T15:35:53.644Z,3.30
2022-10-09T15:38:22.403Z,2.80
2022-10-09T15:40:51.853Z,2.40
2022-10-09T15:43:20.187Z,2.73
2022-10-09T15:45:47.126Z,2.70
2022-10-09T15:48:24.957Z,2.38
2022-10-09T15:50:53.566Z,2.85
2022-10-09T15:53:22.387Z,4.30
2022-10-09T15:55:51.391Z,2.97
2022-10-09T15:58:18.365Z,3.13
2022-10-09T16:00:47.653Z,4.50
2022-10-09T16:03:15.521Z,4.78
2022-10-09T16:05:44.888Z,4.00
2022-10-09T16:08:11.983Z,4.13
2022-10-09T16:10:57.109Z,5.85
2022-10-09T16:13:26.095Z,5.13
2022-10-09T16:15:52.807Z,3.53
2022-10-09T16:18:23.105Z,3.30
2022-10-09T16:20:51.015Z,4.33
2022-10-09T16:23:17.882Z,4.22
2022-10-09T16:25:44.705Z,4.95
2022-10-09T16:28:12.679Z,8.68
2022-10-09T16:30:43.917Z,7.85
2022-10-09T16:33:12.925Z,8.83
2022-10-09T16:35:39.606Z,7.22
2022-10-09T16:38:06.395Z,6.50
2022-10-09T16:40:57.375Z,6.10
2022-10-09T16:43:20.109Z,5.65
2022-10-09T16:45:46.690Z,4.80
2022-10-09T16:48:13.132Z,4.22
2022-10-09T16:50:43.523Z,4.03
2022-10-09T16:53:09.980Z,13.55
2022-10-09T16:55:37.281Z,16.48
2022-10-09T16:58:03.984Z,8.00
2022-10-09T17:00:30.504Z,5.97
2022-10-09T17:02:57.042Z,5.43
2022-10-09T17:05:25.448Z,4.43
2022-10-09T17:07:52.272Z,6.13
2022-10-09T17:10:18.933Z,9.00
2022-10-09T17:12:45.374Z,8.48
2022-10-09T17:15:13.424Z,7.43
2022-10-09T17:17:40.142Z,7.88
2022-10-09T17:20:07.230Z,8.98
2022-10-09T17:22:33.703Z,17.10
2022-10-09T17:25:00.147Z,38.42
2022-10-09T17:27:26.571Z,46.08
2022-10-09T17:29:53.007Z,19.88
2022-10-09T17:32:19.468Z,11.80
2022-10-09T17:34:46.069Z,8.33
2022-10-09T17:37:13.470Z,7.07
2022-10-09T17:39:40.096Z,7.25
2022-10-09T17:42:06.707Z,9.02
2022-10-09T17:44:33.289Z,11.57
2022-10-09T17:47:00.815Z,9.70
2022-10-09T17:49:27.602Z,7.57
2022-10-09T17:51:54.522Z,7.68
2022-10-09T17:54:21.685Z,7.45
2022-10-09T17:56:48.349Z,7.43
2022-10-09T17:59:15.724Z,6.40
2022-10-09T18:01:42.661Z,8.98
2022-10-09T18:04:14.447Z,8.38
2022-10-09T18:06:40.917Z,12.63
2022-10-09T18:09:07.403Z,8.80
2022-10-09T18:11:34.008Z,7.80
2022-10-09T18:14:01.864Z,7.25
2022-10-09T18:16:35.693Z,10.73
2022-10-09T18:19:03.442Z,11.60
2022-10-09T18:21:29.922Z,33.92
2022-10-09T18:23:56.392Z,33.20
2022-10-09T18:26:22.816Z,24.67
2022-10-09T18:28:49.320Z,17.58
2022-10-09T18:31:19.523Z,15.88
2022-10-09T18:33:46.595Z,13.13
2022-10-09T18:36:19.730Z,12.03
2022-10-09T18:38:55.305Z,11.88
2022-10-09T18:41:23.350Z,10.32
2022-10-09T18:43:51.439Z,10.63
2022-10-09T18:46:20.650Z,8.48
2022-10-09T18:48:47.550Z,9.30
2022-10-09T18:51:18.243Z,8.95
2022-10-09T18:53:48.176Z,9.32
2022-10-09T18:56:17.440Z,9.57
2022-10-09T18:58:43.941Z,9.63
2022-10-09T19:01:10.447Z,10.83
2022-10-09T19:03:36.915Z,9.93
2022-10-09T19:06:04.830Z,9.38
2022-10-09T19:08:31.302Z,8.32
2022-10-09T19:10:58.022Z,7.80
2022-10-09T19:13:25.124Z,9.67
2022-10-09T19:15:53.633Z,9.30
2022-10-09T19:18:21.022Z,7.25
2022-10-09T19:20:47.926Z,7.78
2022-10-09T19:23:15.240Z,6.80
2022-10-09T19:25:50.327Z,7.70
2022-10-09T19:28:17.725Z,8.77
2022-10-09T19:30:45.966Z,7.40
2022-10-09T19:33:12.671Z,7.13
2022-10-09T19:35:46.265Z,6.88
2022-10-09T19:38:13.236Z,6.23
2022-10-09T19:40:39.963Z,6.25
2022-10-09T19:43:06.598Z,6.88
2022-10-09T19:45:33.041Z,6.30
2022-10-09T19:48:00.027Z,6.05
2022-10-09T19:50:26.829Z,5.07
2022-10-09T19:52:53.282Z,6.00
2022-10-09T19:55:19.730Z,6.00
2022-10-09T19:57:46.178Z,5.95
2022-10-09T20:00:13.103Z,5.70
2022-10-09T20:02:39.531Z,5.47
2022-10-09T20:05:06.258Z,5.93
2022-10-09T20:07:32.815Z,6.47
2022-10-09T20:09:59.319Z,6.40
2022-10-09T20:12:26.019Z,6.63
2022-10-09T20:14:52.499Z,6.13
2022-10-09T20:17:18.995Z,6.80
2022-10-09T20:19:45.828Z,6.70
2022-10-09T20:22:12.414Z,6.55
2022-10-09T20:24:38.961Z,6.07
2022-10-09T20:27:05.466Z,6.07
2022-10-09T20:29:31.874Z,5.47
2022-10-09T20:31:58.379Z,8.00
2022-10-09T20:34:26.925Z,5.13
2022-10-09T20:36:53.528Z,5.82
2022-10-09T20:39:22.760Z,5.53
2022-10-09T20:41:49.232Z,5.10
2022-10-09T20:44:15.772Z,5.80
2022-10-09T20:46:42.286Z,5.70
2022-10-09T20:49:12.158Z,5.20
2022-10-09T20:51:39.135Z,6.17
2022-10-09T20:54:07.277Z,5.53
2022-10-09T20:56:34.260Z,5.45
2022-10-09T20:59:01.664Z,5.93
2022-10-09T21:01:28.860Z,5.32
2022-10-09T21:03:59.842Z,5.40
2022-10-09T21:06:26.752Z,5.72
2022-10-09T21:08:53.313Z,5.53
2022-10-09T21:11:21.256Z,5.97
2022-10-09T21:13:48.769Z,5.82
2022-10-09T21:16:19.042Z,6.00
2022-10-09T21:18:46.042Z,5.68
2022-10-09T21:21:15.325Z,6.20
2022-10-09T21:23:42.677Z,6.80
2022-10-09T21:26:17.151Z,6.05
2022-10-09T21:28:44.649Z,5.60
2022-10-09T21:31:20.035Z,6.05
2022-10-09T21:33:47.209Z,5.72
2022-10-09T21:36:18.496Z,5.55
2022-10-09T21:38:44.953Z,6.18
2022-10-09T21:41:11.434Z,6.70
2022-10-09T21:43:37.867Z,6.68
2022-10-09T21:46:04.430Z,6.55
2022-10-09T21:48:30.860Z,6.70
2022-10-09T21:50:57.524Z,6.97
2022-10-09T21:53:23.932Z,6.90
2022-10-09T21:55:50.367Z,6.80
2022-10-09T21:58:16.825Z,6.70
2022-10-09T22:00:43.278Z,7.00
2022-10-09T22:03:09.703Z,6.28
2022-10-09T22:05:39.538Z,6.80
2022-10-09T22:08:06.057Z,6.63
2022-10-09T22:10:32.468Z,6.80
2022-10-09T22:12:58.913Z,6.85
2022-10-09T22:15:25.369Z,7.13
2022-10-09T22:17:51.794Z,7.50
2022-10-09T22:20:18.343Z,7.20
2022-10-09T22:22:44.842Z,7.10
2022-10-09T22:25:11.793Z,6.78
2022-10-09T22:27:38.209Z,8.07
2022-10-09T22:30:05.223Z,7.43
2022-10-09T22:32:31.654Z,7.43
2022-10-09T22:34:58.110Z,7.57
2022-10-09T22:37:24.563Z,7.38
2022-10-09T22:39:50.995Z,7.55
2022-10-09T22:42:17.442Z,7.43
2022-10-09T22:44:43.860Z,7.35
2022-10-09T22:47:10.340Z,7.55
2022-10-09T22:49:36.742Z,7.68
2022-10-09T22:52:04.040Z,7.95
2022-10-09T22:54:30.466Z,6.73
2022-10-09T22:56:57.004Z,7.32
2022-10-09T22:59:23.441Z,7.07
2022-10-09T23:01:53.861Z,7.80
2022-10-09T23:04:22.492Z,6.80
2022-10-09T23:06:51.983Z,7.27
2022-10-09T23:09:20.840Z,7.30
2022-10-09T23:11:47.377Z,7.47
2022-10-09T23:14:13.964Z,7.93
2022-10-09T23:16:41.130Z,7.50
2022-10-09T23:19:08.483Z,7.73
2022-10-09T23:21:37.284Z,6.97
2022-10-09T23:24:05.074Z,8.30
2022-10-09T23:26:32.733Z,8.30
2022-10-09T23:29:02.586Z,7.72
2022-10-09T23:31:29.895Z,7.60
2022-10-09T23:33:57.450Z,8.27
2022-10-09T23:36:26.735Z,8.23
2022-10-09T23:38:53.972Z,7.95
2022-10-09T23:41:22.682Z,8.25
2022-10-09T23:43:50.474Z,8.33
2022-10-09T23:46:22.634Z,8.57
2022-10-09T23:48:50.274Z,8.73
2022-10-09T23:51:18.958Z,9.18
2022-10-09T23:53:45.847Z,8.80
2022-10-09T23:56:30.465Z,7.23
2022-10-09T23:58:58.758Z,8.52
